sensor_id;sensor_type;location;lat;lon;timestamp;pressure;altitude;pressure_sealevel;temperature;humidity
9784;BME280;4931;44.874;-1.092;2023-01-13T00:01:23;101545.94;;;10.82;100.00
9784;BME280;4931;44.874;-1.092;2023-01-13T00:03:51;101546.97;;;10.75;100.00
9784;BME280;4931;44.874;-1.092;2023-01-13T00:06:19;101549.25;;;10.84;100.00
9784;BME280;4931;44.874;-1.092;2023-01-13T00:08:49;101548.31;;;10.73;100.00
9784;BME280;4931;44.874;-1.092;2023-01-13T00:11:15;101548.41;;;10.83;100.00
9784;BME280;4931;44.874;-1.092;2023-01-13T00:13:41;101545.41;;;10.85;100.00
9784;BME280;4931;44.874;-1.092;2023-01-13T00:16:10;101537.66;;;10.76;100.00
9784;BME280;4931;44.874;-1.092;2023-01-13T00:18:36;101539.31;;;10.77;100.00
9784;BME280;4931;44.874;-1.092;2023-01-13T00:21:04;101535.25;;;10.85;100.00
9784;BME280;4931;44.874;-1.092;2023-01-13T00:23:32;101534.25;;;10.96;100.00
9784;BME280;4931;44.874;-1.092;2023-01-13T00:26:00;101536.50;;;11.05;100.00
9784;BME280;4931;44.874;-1.092;2023-01-13T00:28:27;101531.78;;;11.00;100.00
9784;BME280;4931;44.874;-1.092;2023-01-13T00:30:52;101532.63;;;11.01;100.00
9784;BME280;4931;44.874;-1.092;2023-01-13T00:33:20;101529.00;;;10.95;100.00
9784;BME280;4931;44.874;-1.092;2023-01-13T00:35:54;101512.59;;;11.05;100.00
9784;BME280;4931;44.874;-1.092;2023-01-13T00:38:20;101512.84;;;10.99;100.00
9784;BME280;4931;44.874;-1.092;2023-01-13T00:41:03;101510.38;;;10.97;100.00
9784;BME280;4931;44.874;-1.092;2023-01-13T00:43:31;101514.44;;;10.89;100.00
9784;BME280;4931;44.874;-1.092;2023-01-13T00:45:58;101516.09;;;10.90;100.00
9784;BME280;4931;44.874;-1.092;2023-01-13T00:48:24;101518.53;;;10.87;100.00
9784;BME280;4931;44.874;-1.092;2023-01-13T00:51:00;101520.72;;;10.90;100.00
9784;BME280;4931;44.874;-1.092;2023-01-13T00:53:27;101516.16;;;11.01;100.00
9784;BME280;4931;44.874;-1.092;2023-01-13T00:56:05;101527.38;;;10.94;100.00
9784;BME280;4931;44.874;-1.092;2023-01-13T00:58:32;101528.25;;;11.05;100.00
9784;BME280;4931;44.874;-1.092;2023-01-13T01:01:04;101524.66;;;11.04;100.00
9784;BME280;4931;44.874;-1.092;2023-01-13T01:03:29;101518.63;;;11.02;100.00
9784;BME280;4931;44.874;-1.092;2023-01-13T01:05:56;101515.38;;;11.10;100.00
9784;BME280;4931;44.874;-1.092;2023-01-13T01:08:22;101514.25;;;11.06;100.00
9784;BME280;4931;44.874;-1.092;2023-01-13T01:10:48;101512.59;;;11.05;100.00
9784;BME280;4931;44.874;-1.092;2023-01-13T01:13:13;101503.25;;;11.01;100.00
9784;BME280;4931;44.874;-1.092;2023-01-13T01:15:44;101520.22;;;10.93;100.00
9784;BME280;4931;44.874;-1.092;2023-01-13T01:18:11;101518.56;;;10.92;100.00
9784;BME280;4931;44.874;-1.092;2023-01-13T01:20:37;101526.53;;;10.93;100.00
9784;BME280;4931;44.874;-1.092;2023-01-13T01:23:03;101525.19;;;10.96;100.00
9784;BME280;4931;44.874;-1.092;2023-01-13T01:25:28;101529.69;;;11.12;100.00
9784;BME280;4931;44.874;-1.092;2023-01-13T01:27:54;101525.00;;;11.13;100.00
9784;BME280;4931;44.874;-1.092;2023-01-13T01:30:19;101514.56;;;11.10;100.00
9784;BME280;4931;44.874;-1.092;2023-01-13T01:32:45;101509.00;;;11.00;100.00
9784;BME280;4931;44.874;-1.092;2023-01-13T01:35:10;101525.19;;;10.96;100.00
9784;BME280;4931;44.874;-1.092;2023-01-13T01:37:36;101516.16;;;11.01;100.00
9784;BME280;4931;44.874;-1.092;2023-01-13T01:40:01;101524.63;;;10.99;100.00
9784;BME280;4931;44.874;-1.092;2023-01-13T01:42:27;101535.41;;;11.06;100.00
9784;BME280;4931;44.874;-1.092;2023-01-13T01:45:18;101511.47;;;11.01;100.00
9784;BME280;4931;44.874;-1.092;2023-01-13T01:47:47;101515.31;;;11.00;100.00
9784;BME280;4931;44.874;-1.092;2023-01-13T01:50:14;101514.53;;;11.05;100.00
9784;BME280;4931;44.874;-1.092;2023-01-13T01:52:43;101518.88;;;10.95;100.00
9784;BME280;4931;44.874;-1.092;2023-01-13T01:55:19;101508.66;;;10.91;100.00
9784;BME280;4931;44.874;-1.092;2023-01-13T01:57:51;101503.22;;;10.96;100.00
9784;BME280;4931;44.874;-1.092;2023-01-13T02:00:17;101501.31;;;11.02;100.00
9784;BME280;4931;44.874;-1.092;2023-01-13T02:02:45;101507.63;;;10.97;100.00
9784;BME280;4931;44.874;-1.092;2023-01-13T02:05:11;101502.47;;;11.06;100.00
9784;BME280;4931;44.874;-1.092;2023-01-13T02:07:39;101498.94;;;11.16;100.00
9784;BME280;4931;44.874;-1.092;2023-01-13T02:10:08;101506.56;;;11.03;100.00
9784;BME280;4931;44.874;-1.092;2023-01-13T02:12:35;101504.94;;;11.07;100.00
9784;BME280;4931;44.874;-1.092;2023-01-13T02:15:14;101514.34;;;11.17;100.00
9784;BME280;4931;44.874;-1.092;2023-01-13T02:20:54;101504.94;;;11.07;100.00
9784;BME280;4931;44.874;-1.092;2023-01-13T02:32:34;101497.25;;;11.09;100.00
9784;BME280;4931;44.874;-1.092;2023-01-13T02:37:42;101508.50;;;11.08;100.00
9784;BME280;4931;44.874;-1.092;2023-01-13T02:40:52;101503.31;;;11.11;100.00
9784;BME280;4931;44.874;-1.092;2023-01-13T02:43:05;101499.44;;;11.07;100.00
9784;BME280;4931;44.874;-1.092;2023-01-13T02:46:12;101491.25;;;11.12;100.00
9784;BME280;4931;44.874;-1.092;2023-01-13T02:48:43;101498.38;;;11.13;100.00
9784;BME280;4931;44.874;-1.092;2023-01-13T02:51:16;101482.50;;;11.21;100.00
9784;BME280;4931;44.874;-1.092;2023-01-13T02:53:51;101485.25;;;11.21;100.00
9784;BME280;4931;44.874;-1.092;2023-01-13T02:56:19;101474.00;;;11.27;100.00
9784;BME280;4931;44.874;-1.092;2023-01-13T02:58:47;101474.25;;;11.21;100.00
9784;BME280;4931;44.874;-1.092;2023-01-13T03:01:13;101479.22;;;11.29;100.00
9784;BME280;4931;44.874;-1.092;2023-01-13T03:03:38;101478.19;;;11.35;100.00
9784;BME280;4931;44.874;-1.092;2023-01-13T03:09:10;101469.84;;;11.20;100.00
9784;BME280;4931;44.874;-1.092;2023-01-13T03:12:09;101463.88;;;11.33;100.00
9784;BME280;4931;44.874;-1.092;2023-01-13T03:17:10;101461.09;;;11.28;100.00
9784;BME280;4931;44.874;-1.092;2023-01-13T03:19:50;101459.97;;;11.24;100.00
9784;BME280;4931;44.874;-1.092;2023-01-13T03:25:10;101473.16;;;11.22;100.00
9784;BME280;4931;44.874;-1.092;2023-01-13T03:30:24;101468.28;;;11.34;100.00
9784;BME280;4931;44.874;-1.092;2023-01-13T03:32:56;101469.91;;;11.30;100.00
9784;BME280;4931;44.874;-1.092;2023-01-13T03:35:28;101474.59;;;11.29;100.00
9784;BME280;4931;44.874;-1.092;2023-01-13T03:38:23;101480.31;;;11.23;100.00
9784;BME280;4931;44.874;-1.092;2023-01-13T03:40:55;101477.56;;;11.28;100.00
9784;BME280;4931;44.874;-1.092;2023-01-13T03:43:28;101476.00;;;11.37;100.00
9784;BME280;4931;44.874;-1.092;2023-01-13T03:46:44;101472.13;;;11.38;100.00
9784;BME280;4931;44.874;-1.092;2023-01-13T03:49:08;101471.56;;;11.31;100.00
9784;BME280;4931;44.874;-1.092;2023-01-13T03:51:38;101458.63;;;11.26;100.00
9784;BME280;4931;44.874;-1.092;2023-01-13T03:54:07;101471.88;;;11.35;100.00
9784;BME280;4931;44.874;-1.092;2023-01-13T03:56:40;101466.38;;;11.35;100.00
9784;BME280;4931;44.874;-1.092;2023-01-13T03:59:11;101457.84;;;11.31;100.00
9784;BME280;4931;44.874;-1.092;2023-01-13T04:01:56;101460.59;;;11.36;100.00
9784;BME280;4931;44.874;-1.092;2023-01-13T04:04:50;101454.28;;;11.41;100.00
9784;BME280;4931;44.874;-1.092;2023-01-13T04:07:21;101454.59;;;11.44;100.00
9784;BME280;4931;44.874;-1.092;2023-01-13T04:09:54;101466.69;;;11.49;100.00
9784;BME280;4931;44.874;-1.092;2023-01-13T04:12:30;101471.59;;;11.36;100.00
9784;BME280;4931;44.874;-1.092;2023-01-13T04:15:21;101472.97;;;11.34;100.00
9784;BME280;4931;44.874;-1.092;2023-01-13T04:17:47;101472.72;;;11.40;100.00
9784;BME280;4931;44.874;-1.092;2023-01-13T04:20:13;101477.63;;;11.38;100.00
9784;BME280;4931;44.874;-1.092;2023-01-13T04:22:39;101479.28;;;11.39;100.00
9784;BME280;4931;44.874;-1.092;2023-01-13T04:25:05;101478.19;;;11.35;100.00
9784;BME280;4931;44.874;-1.092;2023-01-13T04:27:30;101482.00;;;11.34;100.00
9784;BME280;4931;44.874;-1.092;2023-01-13T04:29:56;101484.47;;;11.36;100.00
9784;BME280;4931;44.874;-1.092;2023-01-13T04:32:21;101491.34;;;11.33;100.00
9784;BME280;4931;44.874;-1.092;2023-01-13T04:34:47;101498.22;;;11.36;100.00
9784;BME280;4931;44.874;-1.092;2023-01-13T04:37:12;101496.56;;;11.29;100.00
9784;BME280;4931;44.874;-1.092;2023-01-13T04:39:38;101496.59;;;11.35;100.00
9784;BME280;4931;44.874;-1.092;2023-01-13T04:42:03;101500.69;;;11.32;100.00
9784;BME280;4931;44.874;-1.092;2023-01-13T04:44:29;101492.47;;;11.42;100.00
9784;BME280;4931;44.874;-1.092;2023-01-13T04:46:59;101499.03;;;11.31;100.00
9784;BME280;4931;44.874;-1.092;2023-01-13T04:49:24;101504.81;;;11.29;100.00
9784;BME280;4931;44.874;-1.092;2023-01-13T04:51:50;101495.69;;;11.24;100.00
9784;BME280;4931;44.874;-1.092;2023-01-13T04:54:15;101500.63;;;11.22;100.00
9784;BME280;4931;44.874;-1.092;2023-01-13T04:56:41;101499.78;;;11.21;100.00
9784;BME280;4931;44.874;-1.092;2023-01-13T04:59:08;101492.44;;;11.27;100.00
9784;BME280;4931;44.874;-1.092;2023-01-13T05:01:34;101499.84;;;11.32;100.00
9784;BME280;4931;44.874;-1.092;2023-01-13T05:03:59;101494.28;;;11.21;100.00
9784;BME280;4931;44.874;-1.092;2023-01-13T05:06:25;101494.03;;;11.18;100.00
9784;BME280;4931;44.874;-1.092;2023-01-13T05:08:50;101492.38;;;11.17;100.00
9784;BME280;4931;44.874;-1.092;2023-01-13T05:11:16;101496.50;;;11.19;100.00
9784;BME280;4931;44.874;-1.092;2023-01-13T05:14:00;101495.34;;;11.10;100.00
9784;BME280;4931;44.874;-1.092;2023-01-13T05:16:45;101497.25;;;11.09;100.00
9784;BME280;4931;44.874;-1.092;2023-01-13T05:19:24;101496.16;;;11.10;100.00
9784;BME280;4931;44.874;-1.092;2023-01-13T05:21:50;101493.22;;;11.22;100.00
9784;BME280;4931;44.874;-1.092;2023-01-13T05:24:34;101496.75;;;11.12;100.00
9784;BME280;4931;44.874;-1.092;2023-01-13T05:27:18;101501.97;;;11.14;100.00
9784;BME280;4931;44.874;-1.092;2023-01-13T05:29:43;101508.25;;;11.15;100.00
9784;BME280;4931;44.874;-1.092;2023-01-13T05:32:09;101511.03;;;11.20;100.00
9784;BME280;4931;44.874;-1.092;2023-01-13T05:34:34;101508.22;;;11.09;100.00
9784;BME280;4931;44.874;-1.092;2023-01-13T05:37:00;101513.75;;;11.15;100.00
9784;BME280;4931;44.874;-1.092;2023-01-13T05:39:28;101529.16;;;11.16;100.00
9784;BME280;4931;44.874;-1.092;2023-01-13T05:42:14;101538.47;;;11.15;100.00
9784;BME280;4931;44.874;-1.092;2023-01-13T05:44:58;101536.00;;;11.13;100.00
9784;BME280;4931;44.874;-1.092;2023-01-13T05:47:23;101548.09;;;11.17;100.00
9784;BME280;4931;44.874;-1.092;2023-01-13T05:49:48;101544.56;;;11.22;100.00
9784;BME280;4931;44.874;-1.092;2023-01-13T05:52:14;101558.28;;;11.17;100.00
9784;BME280;4931;44.874;-1.092;2023-01-13T05:54:39;101559.41;;;11.21;100.00
9784;BME280;4931;44.874;-1.092;2023-01-13T05:57:05;101561.53;;;11.13;100.00
9784;BME280;4931;44.874;-1.092;2023-01-13T05:59:31;101567.91;;;11.19;100.00
9784;BME280;4931;44.874;-1.092;2023-01-13T06:01:56;101560.75;;;11.18;100.00
9784;BME280;4931;44.874;-1.092;2023-01-13T06:04:21;101562.66;;;11.12;100.00
9784;BME280;4931;44.874;-1.092;2023-01-13T06:06:47;101563.16;;;11.09;100.00
9784;BME280;4931;44.874;-1.092;2023-01-13T06:09:13;101573.84;;;11.06;100.00
9784;BME280;4931;44.874;-1.092;2023-01-13T06:11:38;101568.41;;;11.16;100.00
9784;BME280;4931;44.874;-1.092;2023-01-13T06:14:04;101580.16;;;11.06;100.00
9784;BME280;4931;44.874;-1.092;2023-01-13T06:16:29;101587.91;;;11.15;100.00
9784;BME280;4931;44.874;-1.092;2023-01-13T06:18:55;101591.78;;;11.19;100.00
9784;BME280;4931;44.874;-1.092;2023-01-13T06:21:20;101595.06;;;11.16;100.00
9784;BME280;4931;44.874;-1.092;2023-01-13T06:23:46;101602.13;;;11.06;100.00
9784;BME280;4931;44.874;-1.092;2023-01-13T06:26:15;101608.19;;;11.08;100.00
9784;BME280;4931;44.874;-1.092;2023-01-13T06:28:46;101613.66;;;11.03;100.00
9784;BME280;4931;44.874;-1.092;2023-01-13T06:31:11;101615.59;;;11.08;100.00
9784;BME280;4931;44.874;-1.092;2023-01-13T06:33:47;101625.75;;;11.07;100.00
9784;BME280;4931;44.874;-1.092;2023-01-13T06:36:25;101632.75;;;11.25;100.00
9784;BME280;4931;44.874;-1.092;2023-01-13T06:38:55;101644.03;;;11.29;100.00
9784;BME280;4931;44.874;-1.092;2023-01-13T06:41:23;101654.44;;;11.22;100.00
9784;BME280;4931;44.874;-1.092;2023-01-13T06:44:09;101658.34;;;11.31;100.00
9784;BME280;4931;44.874;-1.092;2023-01-13T06:46:34;101657.81;;;11.34;100.00
9784;BME280;4931;44.874;-1.092;2023-01-13T06:49:00;101662.19;;;11.30;100.00
9784;BME280;4931;44.874;-1.092;2023-01-13T06:51:25;101679.47;;;11.30;100.00
9784;BME280;4931;44.874;-1.092;2023-01-13T06:53:51;101685.84;;;11.36;100.00
9784;BME280;4931;44.874;-1.092;2023-01-13T06:56:16;101679.78;;;11.34;100.00
9784;BME280;4931;44.874;-1.092;2023-01-13T06:58:42;101675.50;;;11.49;100.00
9784;BME280;4931;44.874;-1.092;2023-01-13T07:01:07;101684.19;;;11.35;100.00
9784;BME280;4931;44.874;-1.092;2023-01-13T07:03:32;101683.13;;;11.36;100.00
9784;BME280;4931;44.874;-1.092;2023-01-13T07:05:58;101691.84;;;11.33;100.00
9784;BME280;4931;44.874;-1.092;2023-01-13T07:08:24;101695.19;;;11.35;100.00
9784;BME280;4931;44.874;-1.092;2023-01-13T07:10:50;101691.31;;;11.31;100.00
9784;BME280;4931;44.874;-1.092;2023-01-13T07:13:17;101686.13;;;11.35;100.00
9784;BME280;4931;44.874;-1.092;2023-01-13T07:16:03;101683.03;;;11.26;100.00
9784;BME280;4931;44.874;-1.092;2023-01-13T07:18:30;101699.50;;;11.26;100.00
9784;BME280;4931;44.874;-1.092;2023-01-13T07:20:58;101698.94;;;11.24;100.00
9784;BME280;4931;44.874;-1.092;2023-01-13T07:23:26;101693.78;;;11.33;100.00
9784;BME280;4931;44.874;-1.092;2023-01-13T07:25:54;101705.03;;;11.31;100.00
9784;BME280;4931;44.874;-1.092;2023-01-13T07:28:20;101697.13;;;11.35;100.00
9784;BME280;4931;44.874;-1.092;2023-01-13T07:30:45;101702.19;;;11.21;100.00
9784;BME280;4931;44.874;-1.092;2023-01-13T07:33:11;101705.84;;;11.32;100.00
9784;BME280;4931;44.874;-1.092;2023-01-13T07:35:36;101705.53;;;11.23;100.00
9784;BME280;4931;44.874;-1.092;2023-01-13T07:38:02;101713.72;;;11.18;100.00
9784;BME280;4931;44.874;-1.092;2023-01-13T07:40:27;101712.56;;;11.13;100.00
9784;BME280;4931;44.874;-1.092;2023-01-13T07:42:53;101714.75;;;11.11;100.00
9784;BME280;4931;44.874;-1.092;2023-01-13T07:45:37;101724.06;;;11.10;100.00
9784;BME280;4931;44.874;-1.092;2023-01-13T07:48:02;101720.25;;;11.11;100.00
9784;BME280;4931;44.874;-1.092;2023-01-13T07:50:28;101724.59;;;11.07;100.00
9784;BME280;4931;44.874;-1.092;2023-01-13T07:52:56;101735.00;;;11.05;100.00
9784;BME280;4931;44.874;-1.092;2023-01-13T07:55:22;101746.00;;;11.05;100.00
9784;BME280;4931;44.874;-1.092;2023-01-13T07:57:47;101745.94;;;11.00;100.00
9784;BME280;4931;44.874;-1.092;2023-01-13T08:00:13;101754.75;;;11.02;100.00
9784;BME280;4931;44.874;-1.092;2023-01-13T08:02:39;101750.28;;;10.96;100.00
9784;BME280;4931;44.874;-1.092;2023-01-13T08:05:05;101743.44;;;10.99;100.00
9784;BME280;4931;44.874;-1.092;2023-01-13T08:07:31;101747.59;;;11.01;100.00
9784;BME280;4931;44.874;-1.092;2023-01-13T08:09:56;101753.41;;;11.05;100.00
9784;BME280;4931;44.874;-1.092;2023-01-13T08:12:22;101746.56;;;11.07;100.00
9784;BME280;4931;44.874;-1.092;2023-01-13T08:15:06;101750.13;;;11.08;100.00
9784;BME280;4931;44.874;-1.092;2023-01-13T08:17:34;101753.19;;;11.39;100.00
9784;BME280;4931;44.874;-1.092;2023-01-13T08:20:00;101751.09;;;11.24;100.00
9784;BME280;4931;44.874;-1.092;2023-01-13T08:22:25;101750.50;;;11.17;100.00
9784;BME280;4931;44.874;-1.092;2023-01-13T08:24:51;101756.50;;;11.13;100.00
9784;BME280;4931;44.874;-1.092;2023-01-13T08:27:16;101758.84;;;11.00;100.00
9784;BME280;4931;44.874;-1.092;2023-01-13T08:29:44;101768.94;;;10.94;100.00
9784;BME280;4931;44.874;-1.092;2023-01-13T08:32:09;101770.59;;;10.95;100.00
9784;BME280;4931;44.874;-1.092;2023-01-13T08:34:35;101777.22;;;10.99;100.00
9784;BME280;4931;44.874;-1.092;2023-01-13T08:37:01;101776.72;;;11.02;100.00
9784;BME280;4931;44.874;-1.092;2023-01-13T08:39:26;101796.97;;;10.96;100.00
9784;BME280;4931;44.874;-1.092;2023-01-13T08:41:52;101790.25;;;10.87;100.00
9784;BME280;4931;44.874;-1.092;2023-01-13T08:44:25;101782.63;;;10.89;100.00
9784;BME280;4931;44.874;-1.092;2023-01-13T08:46:50;101793.59;;;10.89;100.00
9784;BME280;4931;44.874;-1.092;2023-01-13T08:49:16;101786.69;;;10.86;100.00
9784;BME280;4931;44.874;-1.092;2023-01-13T08:51:42;101781.44;;;10.85;100.00
9784;BME280;4931;44.874;-1.092;2023-01-13T08:54:08;101762.72;;;11.31;100.00
9784;BME280;4931;44.874;-1.092;2023-01-13T08:56:34;101756.19;;;11.37;100.00
9784;BME280;4931;44.874;-1.092;2023-01-13T08:59:00;101752.25;;;11.28;100.00
9784;BME280;4931;44.874;-1.092;2023-01-13T09:01:25;101766.81;;;11.28;100.00
9784;BME280;4931;44.874;-1.092;2023-01-13T09:03:52;101771.53;;;11.33;100.00
9784;BME280;4931;44.874;-1.092;2023-01-13T09:06:17;101763.84;;;11.35;100.00
9784;BME280;4931;44.874;-1.092;2023-01-13T09:08:44;101771.31;;;11.40;100.00
9784;BME280;4931;44.874;-1.092;2023-01-13T09:11:21;101794.44;;;11.44;100.00
9784;BME280;4931;44.874;-1.092;2023-01-13T09:14:08;101785.41;;;11.49;100.00
9784;BME280;4931;44.874;-1.092;2023-01-13T09:16:34;101797.53;;;11.53;100.00
9784;BME280;4931;44.874;-1.092;2023-01-13T09:18:59;101807.47;;;11.59;100.00
9784;BME280;4931;44.874;-1.092;2023-01-13T09:21:25;101809.16;;;11.60;100.00
9784;BME280;4931;44.874;-1.092;2023-01-13T09:23:50;101815.13;;;11.52;100.00
9784;BME280;4931;44.874;-1.092;2023-01-13T09:26:19;101833.97;;;11.70;100.00
9784;BME280;4931;44.874;-1.092;2023-01-13T09:28:45;101830.69;;;11.73;100.00
9784;BME280;4931;44.874;-1.092;2023-01-13T09:31:11;101840.66;;;11.79;100.00
9784;BME280;4931;44.874;-1.092;2023-01-13T09:33:36;101831.31;;;11.81;100.00
9784;BME280;4931;44.874;-1.092;2023-01-13T09:36:21;101834.63;;;11.83;100.00
9784;BME280;4931;44.874;-1.092;2023-01-13T09:38:48;101839.63;;;11.91;100.00
9784;BME280;4931;44.874;-1.092;2023-01-13T09:41:19;101847.44;;;11.99;100.00
9784;BME280;4931;44.874;-1.092;2023-01-13T09:44:06;101852.50;;;12.12;100.00
9784;BME280;4931;44.874;-1.092;2023-01-13T09:46:42;101849.19;;;12.16;100.00
9784;BME280;4931;44.874;-1.092;2023-01-13T09:51:57;101868.88;;;11.97;100.00
9784;BME280;4931;44.874;-1.092;2023-01-13T09:54:41;101868.06;;;11.97;100.00
9784;BME280;4931;44.874;-1.092;2023-01-13T09:57:13;101885.44;;;12.07;100.00
9784;BME280;4931;44.874;-1.092;2023-01-13T09:59:39;101892.63;;;12.08;100.00
9784;BME280;4931;44.874;-1.092;2023-01-13T10:05:04;101913.13;;;11.95;100.00
9784;BME280;4931;44.874;-1.092;2023-01-13T10:07:33;101914.41;;;11.88;100.00
9784;BME280;4931;44.874;-1.092;2023-01-13T10:10:02;101916.56;;;11.86;100.00
9784;BME280;4931;44.874;-1.092;2023-01-13T10:12:29;101921.56;;;11.89;100.00
9784;BME280;4931;44.874;-1.092;2023-01-13T10:15:16;101933.13;;;11.91;100.00
9784;BME280;4931;44.874;-1.092;2023-01-13T10:17:49;101932.38;;;11.95;100.00
9784;BME280;4931;44.874;-1.092;2023-01-13T10:20:28;101939.53;;;11.97;100.00
9784;BME280;4931;44.874;-1.092;2023-01-13T10:25:52;101949.78;;;12.06;100.00
9784;BME280;4931;44.874;-1.092;2023-01-13T10:28:20;101960.25;;;12.09;100.00
9784;BME280;4931;44.874;-1.092;2023-01-13T10:30:48;101950.66;;;12.12;100.00
9784;BME280;4931;44.874;-1.092;2023-01-13T10:33:20;101952.66;;;12.17;100.00
9784;BME280;4931;44.874;-1.092;2023-01-13T10:36:01;101951.13;;;12.31;100.00
9784;BME280;4931;44.874;-1.092;2023-01-13T10:38:48;101947.88;;;12.39;100.00
9784;BME280;4931;44.874;-1.092;2023-01-13T10:46:15;101939.16;;;12.48;100.00
9784;BME280;4931;44.874;-1.092;2023-01-13T10:48:42;101942.44;;;12.50;100.00
9784;BME280;4931;44.874;-1.092;2023-01-13T10:51:19;101936.19;;;12.59;100.00
9784;BME280;4931;44.874;-1.092;2023-01-13T10:53:54;101924.78;;;12.83;100.00
9784;BME280;4931;44.874;-1.092;2023-01-13T10:56:22;101925.69;;;12.99;100.00
9784;BME280;4931;44.874;-1.092;2023-01-13T10:58:48;101925.72;;;13.04;100.00
9784;BME280;4931;44.874;-1.092;2023-01-13T11:01:21;101926.84;;;13.08;100.00
9784;BME280;4931;44.874;-1.092;2023-01-13T11:03:50;101914.72;;;13.09;100.00
9784;BME280;4931;44.874;-1.092;2023-01-13T11:06:27;101914.75;;;13.15;100.00
9784;BME280;4931;44.874;-1.092;2023-01-13T11:08:54;101923.56;;;13.17;100.00
9784;BME280;4931;44.874;-1.092;2023-01-13T11:11:35;101920.28;;;13.20;100.00
9784;BME280;4931;44.874;-1.092;2023-01-13T11:14:07;101912.00;;;13.15;100.00
9784;BME280;4931;44.874;-1.092;2023-01-13T11:16:57;101895.47;;;13.15;100.00
9784;BME280;4931;44.874;-1.092;2023-01-13T11:19:26;101885.28;;;13.20;100.00
9784;BME280;4931;44.874;-1.092;2023-01-13T11:24:47;101873.19;;;13.26;100.00
9784;BME280;4931;44.874;-1.092;2023-01-13T11:30:16;101851.50;;;13.56;100.00
9784;BME280;4931;44.874;-1.092;2023-01-13T11:35:52;101831.66;;;14.05;100.00
9784;BME280;4931;44.874;-1.092;2023-01-13T11:38:30;101808.44;;;14.32;100.00
9784;BME280;4931;44.874;-1.092;2023-01-13T11:41:13;101802.38;;;14.30;100.00
9784;BME280;4931;44.874;-1.092;2023-01-13T11:43:49;101803.47;;;14.34;100.00
9784;BME280;4931;44.874;-1.092;2023-01-13T11:46:17;101792.41;;;14.44;100.00
9784;BME280;4931;44.874;-1.092;2023-01-13T11:48:43;101797.31;;;14.58;100.00
9784;BME280;4931;44.874;-1.092;2023-01-13T12:07:17;101786.44;;;15.32;100.00
9784;BME280;4931;44.874;-1.092;2023-01-13T12:18:33;101780.47;;;15.89;100.00
9784;BME280;4931;44.874;-1.092;2023-01-13T12:29:31;101752.00;;;16.13;100.00
9784;BME280;4931;44.874;-1.092;2023-01-13T12:31:58;101755.31;;;16.15;100.00
9784;BME280;4931;44.874;-1.092;2023-01-13T12:45:31;101720.78;;;16.55;100.00
9784;BME280;4931;44.874;-1.092;2023-01-13T12:47:57;101722.81;;;16.50;100.00
9784;BME280;4931;44.874;-1.092;2023-01-13T12:52:53;101734.03;;;16.58;100.00
9784;BME280;4931;44.874;-1.092;2023-01-13T12:55:21;101738.22;;;16.99;100.00
9784;BME280;4931;44.874;-1.092;2023-01-13T13:08:49;101730.69;;;16.81;100.00
9784;BME280;4931;44.874;-1.092;2023-01-13T13:11:38;101739.94;;;16.52;100.00
9784;BME280;4931;44.874;-1.092;2023-01-13T13:19:45;101757.47;;;16.66;100.00
9784;BME280;4931;44.874;-1.092;2023-01-13T13:24:37;101788.44;;;16.73;100.00
9784;BME280;4931;44.874;-1.092;2023-01-13T13:30:10;101797.34;;;16.46;100.00
9784;BME280;4931;44.874;-1.092;2023-01-13T13:42:18;101747.53;;;16.65;100.00
9784;BME280;4931;44.874;-1.092;2023-01-13T13:45:17;101749.03;;;16.57;100.00
9784;BME280;4931;44.874;-1.092;2023-01-13T13:48:29;101744.59;;;16.32;100.00
9784;BME280;4931;44.874;-1.092;2023-01-13T13:51:00;101731.31;;;16.34;100.00
9784;BME280;4931;44.874;-1.092;2023-01-13T13:53:38;101723.16;;;16.19;100.00
9784;BME280;4931;44.874;-1.092;2023-01-13T13:56:15;101726.25;;;16.17;100.00
9784;BME280;4931;44.874;-1.092;2023-01-13T13:58:41;101735.91;;;16.20;100.00
9784;BME280;4931;44.874;-1.092;2023-01-13T14:01:20;101750.19;;;16.03;100.00
9784;BME280;4931;44.874;-1.092;2023-01-13T14:04:02;101750.16;;;16.08;100.00
9784;BME280;4931;44.874;-1.092;2023-01-13T14:06:28;101757.09;;;16.05;100.00
9784;BME280;4931;44.874;-1.092;2023-01-13T14:08:57;101753.66;;;16.14;100.00
9784;BME280;4931;44.874;-1.092;2023-01-13T14:11:32;101763.78;;;15.99;100.00
9784;BME280;4931;44.874;-1.092;2023-01-13T14:16:28;101761.19;;;15.84;100.00
9784;BME280;4931;44.874;-1.092;2023-01-13T14:18:54;101768.63;;;16.13;100.00
9784;BME280;4931;44.874;-1.092;2023-01-13T14:21:28;101769.91;;;15.96;100.00
9784;BME280;4931;44.874;-1.092;2023-01-13T14:24:01;101776.25;;;15.97;100.00
9784;BME280;4931;44.874;-1.092;2023-01-13T14:26:30;101782.69;;;15.92;100.00
9784;BME280;4931;44.874;-1.092;2023-01-13T14:28:59;101777.00;;;15.73;100.00
9784;BME280;4931;44.874;-1.092;2023-01-13T14:31:25;101768.41;;;15.74;100.00
9784;BME280;4931;44.874;-1.092;2023-01-13T14:33:53;101779.41;;;15.85;100.00
9784;BME280;4931;44.874;-1.092;2023-01-13T14:41:57;101781.06;;;15.86;100.00
9784;BME280;4931;44.874;-1.092;2023-01-13T14:44:33;101775.28;;;15.82;100.00
9784;BME280;4931;44.874;-1.092;2023-01-13T14:47:17;101774.25;;;15.73;100.00
9784;BME280;4931;44.874;-1.092;2023-01-13T14:50:05;101788.16;;;15.63;100.00
9784;BME280;4931;44.874;-1.092;2023-01-13T14:52:45;101780.81;;;15.48;100.00
9784;BME280;4931;44.874;-1.092;2023-01-13T14:55:33;101760.44;;;15.38;100.00
9784;BME280;4931;44.874;-1.092;2023-01-13T15:00:49;101792.38;;;15.15;100.00
9784;BME280;4931;44.874;-1.092;2023-01-13T15:03:16;101790.75;;;15.09;100.00
9784;BME280;4931;44.874;-1.092;2023-01-13T15:05:45;101783.38;;;14.94;100.00
9784;BME280;4931;44.874;-1.092;2023-01-13T15:15:56;101813.84;;;14.73;100.00
9784;BME280;4931;44.874;-1.092;2023-01-13T15:18:22;101812.78;;;14.64;100.00
9784;BME280;4931;44.874;-1.092;2023-01-13T15:20:48;101817.75;;;14.67;100.00
9784;BME280;4931;44.874;-1.092;2023-01-13T15:23:16;101831.78;;;14.76;100.00
9784;BME280;4931;44.874;-1.092;2023-01-13T15:25:43;101832.00;;;14.90;100.00
9784;BME280;4931;44.874;-1.092;2023-01-13T15:30:40;101842.03;;;14.55;100.00
9784;BME280;4931;44.874;-1.092;2023-01-13T15:33:09;101840.44;;;14.43;100.00
9784;BME280;4931;44.874;-1.092;2023-01-13T15:35:36;101838.75;;;14.48;100.00